createdAt,value
2018-12-05T00:01:22.046Z,11.60
2018-12-05T00:03:52.517Z,9.10
2018-12-05T00:06:22.930Z,9.45
2018-12-05T00:11:33.967Z,9.90
2018-12-05T00:14:04.599Z,9.63
2018-12-05T00:16:35.313Z,10.82
2018-12-05T00:19:06.403Z,10.00
2018-12-05T00:21:38.628Z,10.00
2018-12-05T00:24:11.988Z,9.78
2018-12-05T00:26:45.168Z,9.73
2018-12-05T00:29:16.079Z,10.98
2018-12-05T00:31:53.520Z,10.13
2018-12-05T00:34:25.364Z,10.08
2018-12-05T00:36:56.414Z,9.63
2018-12-05T00:39:28.833Z,11.20
2018-12-05T00:42:00.630Z,10.60
2018-12-05T00:44:33.552Z,11.73
2018-12-05T00:47:04.718Z,10.55
2018-12-05T00:49:36.033Z,11.95
2018-12-05T00:52:07.150Z,11.18
2018-12-05T00:54:38.986Z,10.72
2018-12-05T00:57:12.650Z,10.70
2018-12-05T00:59:43.407Z,11.53
2018-12-05T01:02:14.121Z,10.82
2018-12-05T01:04:49.481Z,11.55
2018-12-05T01:07:25.015Z,10.80
2018-12-05T01:09:58.430Z,11.50
2018-12-05T01:12:30.073Z,12.07
2018-12-05T01:15:01.231Z,11.35
2018-12-05T01:17:32.029Z,12.25
2018-12-05T01:20:02.799Z,11.40
2018-12-05T01:22:33.556Z,9.75
2018-12-05T01:25:07.963Z,10.80
2018-12-05T01:27:39.376Z,12.37
2018-12-05T01:30:10.288Z,12.93
2018-12-05T01:32:40.844Z,11.57
2018-12-05T01:35:11.487Z,13.25
2018-12-05T01:37:41.828Z,12.80
2018-12-05T01:40:12.919Z,14.25
2018-12-05T01:42:43.400Z,14.13
2018-12-05T01:45:14.114Z,14.10
2018-12-05T01:47:44.634Z,13.65
2018-12-05T01:50:15.460Z,13.78
2018-12-05T01:52:46.797Z,14.20
2018-12-05T01:55:17.635Z,12.78
2018-12-05T01:57:48.389Z,11.05
2018-12-05T02:00:19.176Z,12.50
2018-12-05T02:02:49.789Z,13.83
2018-12-05T02:05:20.177Z,15.28
2018-12-05T02:07:50.668Z,14.13
2018-12-05T02:10:22.323Z,15.23
2018-12-05T02:12:53.387Z,13.80
2018-12-05T02:15:25.889Z,13.90
2018-12-05T02:20:44.160Z,13.75
2018-12-05T02:23:16.509Z,15.50
2018-12-05T02:25:46.954Z,13.60
2018-12-05T02:28:17.980Z,15.88
2018-12-05T02:30:48.750Z,17.20
2018-12-05T02:33:19.924Z,16.42
2018-12-05T02:35:53.297Z,15.43
2018-12-05T02:38:25.268Z,14.35
2018-12-05T02:40:56.406Z,15.83
2018-12-05T02:43:27.348Z,15.20
2018-12-05T02:45:58.610Z,16.30
2018-12-05T02:48:30.386Z,16.10
2018-12-05T02:51:01.124Z,16.23
2018-12-05T02:53:31.786Z,17.27
2018-12-05T02:56:03.042Z,17.20
2018-12-05T02:58:33.786Z,16.60
2018-12-05T03:01:05.294Z,15.10
2018-12-05T03:03:36.685Z,16.62
2018-12-05T03:06:07.378Z,16.45
2018-12-05T03:08:37.980Z,18.15
2018-12-05T03:11:09.296Z,18.27
2018-12-05T03:13:39.933Z,18.20
2018-12-05T03:16:11.858Z,15.32
2018-12-05T03:18:44.162Z,14.03
2018-12-05T03:21:14.812Z,15.63
2018-12-05T03:23:46.441Z,14.93
2018-12-05T03:26:17.561Z,15.30
2018-12-05T03:28:48.467Z,16.30
2018-12-05T03:31:18.914Z,15.78
2018-12-05T03:33:49.272Z,15.03
2018-12-05T03:36:20.005Z,14.50
2018-12-05T03:38:50.507Z,16.10
2018-12-05T03:41:21.400Z,15.55
2018-12-05T03:43:52.100Z,15.15
2018-12-05T03:46:22.825Z,13.88
2018-12-05T03:48:53.345Z,14.25
2018-12-05T03:51:24.571Z,14.47
2018-12-05T03:53:55.143Z,13.75
2018-12-05T03:56:26.467Z,14.95
2018-12-05T03:58:57.531Z,14.58
2018-12-05T04:01:28.246Z,15.23
2018-12-05T04:03:58.845Z,15.10
2018-12-05T04:06:32.298Z,13.40
2018-12-05T04:09:04.968Z,14.60
2018-12-05T04:11:35.838Z,13.20
2018-12-05T04:14:06.399Z,13.50
2018-12-05T04:16:37.000Z,14.43
2018-12-05T04:19:07.501Z,13.80
2018-12-05T04:21:38.221Z,14.65
2018-12-05T04:24:08.834Z,14.00
2018-12-05T04:26:39.584Z,17.60
2018-12-05T04:29:10.446Z,16.12
2018-12-05T04:31:40.943Z,16.42
2018-12-05T04:34:11.595Z,13.35
2018-12-05T04:36:43.416Z,13.72
2018-12-05T04:39:13.973Z,15.08
2018-12-05T04:41:44.401Z,15.95
2018-12-05T04:44:16.040Z,14.95
2018-12-05T04:46:46.430Z,15.80
2018-12-05T04:49:17.440Z,15.80
2018-12-05T04:51:48.081Z,18.40
2018-12-05T04:54:20.094Z,15.80
2018-12-05T04:56:50.649Z,16.15
2018-12-05T04:59:21.280Z,16.87
2018-12-05T05:01:52.497Z,15.08
2018-12-05T05:04:24.554Z,15.53
2018-12-05T05:06:56.240Z,16.17
2018-12-05T05:09:28.516Z,14.63
2018-12-05T05:11:59.914Z,14.90
2018-12-05T05:14:30.539Z,14.13
2018-12-05T05:17:01.846Z,15.58
2018-12-05T05:19:33.232Z,15.95
2018-12-05T05:22:05.181Z,16.23
2018-12-05T05:24:36.972Z,14.43
2018-12-05T05:27:08.067Z,15.60
2018-12-05T05:29:39.100Z,14.13
2018-12-05T05:32:11.829Z,15.80
2018-12-05T05:34:43.956Z,16.57
2018-12-05T05:37:26.475Z,14.95
2018-12-05T05:39:59.379Z,16.10
2018-12-05T05:42:31.950Z,16.50
2018-12-05T05:45:03.919Z,14.95
2018-12-05T05:47:35.339Z,15.18
2018-12-05T05:50:07.091Z,16.25
2018-12-05T05:52:38.333Z,15.40
2018-12-05T05:55:09.607Z,13.40
2018-12-05T05:57:42.059Z,14.78
2018-12-05T06:00:13.471Z,15.88
2018-12-05T06:02:44.620Z,15.35
2018-12-05T06:05:15.241Z,13.90
2018-12-05T06:07:46.846Z,13.50
2018-12-05T06:10:18.184Z,13.35
2018-12-05T06:12:53.434Z,15.23
2018-12-05T06:15:24.333Z,16.82
2018-12-05T06:17:54.781Z,13.85
2018-12-05T06:20:25.822Z,13.83
2018-12-05T06:22:56.662Z,13.48
2018-12-05T06:25:38.779Z,15.00
2018-12-05T06:28:10.318Z,14.05
2018-12-05T06:30:40.747Z,14.07
2018-12-05T06:33:10.956Z,13.50
2018-12-05T06:35:41.486Z,15.83
2018-12-05T06:38:14.495Z,15.28
2018-12-05T06:40:49.227Z,14.13
2018-12-05T06:43:26.318Z,16.10
2018-12-05T06:46:04.832Z,13.58
2018-12-05T06:48:37.606Z,13.90
2018-12-05T06:51:07.961Z,14.20
2018-12-05T06:53:38.769Z,14.13
2018-12-05T06:56:09.528Z,15.28
2018-12-05T06:58:40.122Z,12.65
2018-12-05T07:01:11.687Z,15.25
2018-12-05T07:03:42.013Z,12.53
2018-12-05T07:06:13.039Z,13.13
2018-12-05T07:08:43.441Z,13.48
2018-12-05T07:11:13.859Z,15.08
2018-12-05T07:13:44.224Z,13.40
2018-12-05T07:16:14.677Z,11.97
2018-12-05T07:18:45.181Z,14.43
2018-12-05T07:21:15.750Z,15.50
2018-12-05T07:23:46.157Z,12.47
2018-12-05T07:26:17.186Z,14.18
2018-12-05T07:31:38.106Z,13.32
2018-12-05T07:34:20.272Z,14.15
2018-12-05T07:36:53.809Z,14.60
2018-12-05T07:39:26.285Z,15.63
2018-12-05T07:41:59.068Z,15.72
2018-12-05T07:44:31.227Z,16.35
2018-12-05T07:47:01.734Z,14.18
2018-12-05T07:49:32.219Z,14.05
2018-12-05T07:52:04.639Z,14.87
2018-12-05T07:54:35.287Z,13.88
2018-12-05T07:57:07.758Z,14.20
2018-12-05T07:59:38.416Z,13.85
2018-12-05T08:02:09.715Z,14.80
2018-12-05T08:04:42.695Z,14.43
2018-12-05T08:07:14.730Z,13.55
2018-12-05T08:09:46.190Z,13.03
2018-12-05T08:12:18.089Z,13.10
2018-12-05T08:14:48.835Z,13.90
2018-12-05T08:17:19.963Z,14.20
2018-12-05T08:19:51.115Z,12.20
2018-12-05T08:22:22.191Z,13.25
2018-12-05T08:24:54.154Z,12.95
2018-12-05T08:27:26.425Z,13.40
2018-12-05T08:30:00.634Z,12.03
2018-12-05T08:32:40.994Z,12.98
2018-12-05T08:35:20.009Z,13.25
2018-12-05T08:41:21.500Z,13.32
2018-12-05T08:43:54.201Z,12.43
2018-12-05T08:49:21.953Z,12.07
2018-12-05T08:51:53.917Z,12.35
2018-12-05T08:54:25.474Z,13.32
2018-12-05T08:56:57.372Z,13.62
2018-12-05T08:59:29.002Z,13.88
2018-12-05T09:02:00.654Z,12.90
2018-12-05T09:04:32.176Z,14.33
2018-12-05T09:07:03.023Z,12.58
2018-12-05T09:09:34.057Z,13.38
2018-12-05T09:12:05.545Z,13.38
2018-12-05T09:14:36.903Z,14.30
2018-12-05T09:17:07.398Z,13.58
2018-12-05T09:19:39.301Z,13.35
2018-12-05T09:22:10.945Z,13.10
2018-12-05T09:24:41.662Z,13.88
2018-12-05T09:27:12.361Z,14.70
2018-12-05T09:29:43.825Z,13.03
2018-12-05T09:32:14.591Z,12.73
2018-12-05T09:34:46.287Z,12.73
2018-12-05T09:37:17.285Z,14.85
2018-12-05T09:39:49.760Z,13.10
2018-12-05T09:42:23.761Z,14.00
2018-12-05T09:44:59.223Z,12.63
2018-12-05T09:47:32.365Z,14.78
2018-12-05T09:50:09.167Z,12.00
2018-12-05T09:52:46.467Z,12.35
2018-12-05T09:55:23.902Z,13.15
2018-12-05T09:57:55.483Z,11.80
2018-12-05T20:45:12.534Z,14.07
2018-12-05T20:47:43.197Z,14.85
2018-12-05T20:50:14.243Z,15.18
2018-12-05T20:52:47.799Z,13.03
2018-12-05T20:55:19.340Z,12.50
2018-12-05T21:00:44.568Z,12.60
2018-12-05T21:03:15.949Z,12.18
2018-12-05T21:05:50.262Z,13.10
2018-12-05T21:08:22.043Z,13.40
2018-12-05T21:10:52.548Z,15.03
2018-12-05T21:13:23.362Z,11.53
2018-12-05T21:15:57.170Z,13.05
2018-12-05T21:59:36.417Z,13.95
2018-12-05T22:02:07.991Z,14.15
2018-12-05T23:19:53.127Z,13.78
2018-12-05T23:22:23.859Z,14.23
2018-12-05T23:25:01.058Z,12.37
2018-12-05T23:27:31.627Z,13.20
2018-12-05T23:30:03.227Z,14.55
2018-12-05T23:32:35.043Z,16.12
2018-12-05T23:35:05.950Z,12.35
2018-12-05T23:37:36.710Z,12.93
2018-12-05T23:40:07.586Z,13.28
2018-12-05T23:42:38.386Z,12.65
2018-12-05T23:45:10.999Z,13.62
2018-12-05T23:47:41.448Z,13.10
2018-12-05T23:50:12.040Z,13.03
2018-12-05T23:52:42.924Z,13.50
2018-12-05T23:55:15.535Z,13.15
2018-12-05T23:57:46.291Z,14.00
